createdAt,value
2022-12-25T00:01:08.984Z,86.32
2022-12-25T00:03:36.813Z,92.93
2022-12-25T00:06:04.331Z,92.95
2022-12-25T00:08:31.807Z,83.85
2022-12-25T00:11:04.561Z,89.28
2022-12-25T00:13:31.769Z,88.65
2022-12-25T00:15:58.833Z,87.65
2022-12-25T00:18:25.959Z,88.97
2022-12-25T00:20:57.987Z,94.97
2022-12-25T00:23:24.998Z,89.80
2022-12-25T00:25:53.003Z,87.28
2022-12-25T00:28:20.741Z,89.00
2022-12-25T00:30:48.043Z,71.63
2022-12-25T00:33:15.744Z,79.45
2022-12-25T00:35:42.893Z,93.18
2022-12-25T00:38:09.969Z,91.35
2022-12-25T00:40:44.298Z,73.68
2022-12-25T00:43:11.330Z,92.97
2022-12-25T00:45:38.288Z,86.35
2022-12-25T00:48:05.403Z,91.57
2022-12-25T00:50:32.703Z,77.30
2022-12-25T00:52:59.612Z,92.15
2022-12-25T00:55:26.540Z,80.03
2022-12-25T00:57:53.375Z,86.25
2022-12-25T01:00:20.384Z,75.65
2022-12-25T01:02:47.400Z,90.40
2022-12-25T01:05:14.484Z,79.35
2022-12-25T01:07:41.455Z,78.82
2022-12-25T01:10:22.809Z,89.05
2022-12-25T01:12:50.522Z,76.93
2022-12-25T01:15:18.463Z,95.57
2022-12-25T01:17:45.669Z,77.68
2022-12-25T01:20:15.102Z,92.43
2022-12-25T01:22:42.580Z,88.47
2022-12-25T01:25:10.819Z,86.82
2022-12-25T01:27:37.828Z,98.18
2022-12-25T01:30:05.941Z,102.35
2022-12-25T01:32:32.951Z,92.85
2022-12-25T01:34:59.832Z,111.30
2022-12-25T01:37:26.703Z,101.50
2022-12-25T01:39:54.124Z,105.00
2022-12-25T01:42:23.684Z,93.25
2022-12-25T01:44:50.664Z,98.47
2022-12-25T01:47:18.577Z,101.90
2022-12-25T01:49:49.866Z,115.53
2022-12-25T01:52:24.668Z,95.43
2022-12-25T01:55:04.057Z,122.47
2022-12-25T01:57:34.485Z,111.78
2022-12-25T02:00:02.604Z,110.47
2022-12-25T02:02:29.702Z,105.38
2022-12-25T02:05:16.432Z,118.22
2022-12-25T02:07:43.770Z,133.23
2022-12-25T02:10:11.973Z,118.88
2022-12-25T02:12:39.509Z,102.38
2022-12-25T02:15:10.335Z,102.88
2022-12-25T02:17:48.586Z,113.75
2022-12-25T02:20:34.337Z,107.72
2022-12-25T02:23:23.604Z,99.32
2022-12-25T02:26:17.612Z,93.90
2022-12-25T02:29:05.291Z,102.75
2022-12-25T02:32:01.518Z,102.32
2022-12-25T02:34:41.450Z,95.53
2022-12-25T02:37:16.134Z,105.47
2022-12-25T02:39:59.372Z,81.45
2022-12-25T02:43:09.096Z,88.57
2022-12-25T02:46:09.988Z,95.85
2022-12-25T02:49:00.748Z,86.88
2022-12-25T02:51:50.143Z,98.15
2022-12-25T02:54:41.092Z,82.85
2022-12-25T02:57:30.293Z,92.50
2022-12-25T03:00:19.424Z,90.45
2022-12-25T03:03:07.495Z,101.63
2022-12-25T03:05:57.388Z,94.70
2022-12-25T03:08:34.873Z,79.03
2022-12-25T03:11:24.760Z,96.40
2022-12-25T03:14:26.233Z,93.80
2022-12-25T03:16:56.671Z,78.13
2022-12-25T03:19:46.851Z,74.28
2022-12-25T03:22:38.159Z,75.22
2022-12-25T03:25:24.146Z,66.28
2022-12-25T03:27:54.499Z,61.20
2022-12-25T03:30:42.865Z,69.65
2022-12-25T03:34:13.205Z,84.90
2022-12-25T03:37:24.469Z,62.30
2022-12-25T03:40:39.965Z,75.72
2022-12-25T03:43:57.187Z,85.40
2022-12-25T03:46:46.835Z,59.05
2022-12-25T03:49:51.384Z,53.88
2022-12-25T03:52:39.297Z,70.82
2022-12-25T03:55:29.013Z,58.22
2022-12-25T03:58:14.559Z,71.75
2022-12-25T04:01:00.183Z,70.13
2022-12-25T04:03:45.772Z,68.05
2022-12-25T04:06:31.327Z,49.25
2022-12-25T04:09:16.734Z,58.70
2022-12-25T04:12:03.093Z,54.75
2022-12-25T04:14:49.076Z,57.20
2022-12-25T04:17:34.434Z,66.65
2022-12-25T04:20:19.754Z,74.15
2022-12-25T04:23:05.043Z,75.57
2022-12-25T04:25:50.489Z,74.60
2022-12-25T04:28:35.895Z,83.68
2022-12-25T04:31:21.454Z,80.03
2022-12-25T04:34:06.828Z,89.93
2022-12-25T04:36:33.860Z,84.05
2022-12-25T04:39:00.783Z,83.18
2022-12-25T04:41:27.751Z,92.32
2022-12-25T04:43:54.645Z,82.55
2022-12-25T04:46:21.580Z,91.72
2022-12-25T04:48:48.505Z,103.55
2022-12-25T04:51:21.818Z,84.78
2022-12-25T04:53:49.944Z,85.87
2022-12-25T04:56:20.416Z,77.90
2022-12-25T04:58:47.465Z,77.50
2022-12-25T05:01:15.155Z,69.28
2022-12-25T05:03:42.496Z,91.20
2022-12-25T05:06:09.904Z,88.53
2022-12-25T05:08:37.295Z,83.13
2022-12-25T05:11:13.021Z,82.65
2022-12-25T05:13:40.192Z,68.38
2022-12-25T05:16:16.161Z,68.28
2022-12-25T05:18:43.521Z,104.82
2022-12-25T05:21:13.759Z,88.82
2022-12-25T05:23:48.571Z,78.90
2022-12-25T05:26:19.723Z,85.20
2022-12-25T05:28:47.049Z,69.90
2022-12-25T05:31:14.405Z,80.95
2022-12-25T05:33:41.639Z,79.95
2022-12-25T05:36:11.178Z,67.63
2022-12-25T05:38:39.193Z,68.38
2022-12-25T05:41:06.669Z,74.65
2022-12-25T05:43:33.609Z,63.55
2022-12-25T05:46:05.779Z,80.22
2022-12-25T05:48:33.859Z,82.45
2022-12-25T05:51:09.091Z,82.88
2022-12-25T05:53:37.000Z,71.03
2022-12-25T05:56:06.276Z,90.05
2022-12-25T05:58:35.137Z,69.85
2022-12-25T06:01:02.235Z,75.50
2022-12-25T06:03:29.400Z,75.85
2022-12-25T06:05:56.511Z,76.03
2022-12-25T06:08:23.470Z,87.75
2022-12-25T06:10:50.365Z,89.22
2022-12-25T06:13:17.415Z,96.03
2022-12-25T06:15:44.310Z,80.43
2022-12-25T06:18:11.284Z,85.65
2022-12-25T06:20:41.071Z,86.03
2022-12-25T06:23:07.934Z,108.00
2022-12-25T06:25:35.013Z,84.80
2022-12-25T06:28:03.294Z,90.00
2022-12-25T06:30:30.264Z,96.68
2022-12-25T06:32:57.151Z,98.50
2022-12-25T06:35:24.046Z,97.10
2022-12-25T06:37:50.988Z,104.63
2022-12-25T06:40:18.117Z,99.40
2022-12-25T06:42:45.168Z,103.60
2022-12-25T06:45:12.033Z,90.78
2022-12-25T06:47:39.081Z,91.57
2022-12-25T06:50:06.949Z,94.65
2022-12-25T06:52:34.298Z,112.45
2022-12-25T06:55:01.163Z,112.88
2022-12-25T06:57:28.093Z,102.80
2022-12-25T06:59:55.652Z,94.30
2022-12-25T07:02:24.476Z,101.65
2022-12-25T07:04:52.342Z,91.40
2022-12-25T07:07:20.803Z,84.72
2022-12-25T07:09:47.760Z,101.65
2022-12-25T07:12:23.505Z,98.47
2022-12-25T07:14:50.850Z,88.82
2022-12-25T07:17:18.786Z,83.40
2022-12-25T07:19:49.624Z,89.43
2022-12-25T07:22:16.873Z,86.20
2022-12-25T07:24:43.879Z,72.13
2022-12-25T07:27:10.799Z,81.80
2022-12-25T07:29:37.736Z,72.68
2022-12-25T07:32:05.087Z,82.00
2022-12-25T07:34:32.220Z,71.68
2022-12-25T07:36:59.096Z,79.13
2022-12-25T07:39:26.009Z,85.28
2022-12-25T07:41:52.887Z,69.22
2022-12-25T07:44:19.947Z,90.93
2022-12-25T07:46:47.134Z,66.90
2022-12-25T07:49:14.181Z,74.57
2022-12-25T07:51:41.122Z,79.53
2022-12-25T07:54:08.206Z,72.55
2022-12-25T07:56:35.101Z,80.60
2022-12-25T07:59:02.148Z,60.50
2022-12-25T08:01:29.645Z,72.60
2022-12-25T08:03:59.332Z,70.57
2022-12-25T08:06:30.432Z,60.53
2022-12-25T08:09:01.842Z,65.63
2022-12-25T08:11:29.137Z,55.97
2022-12-25T08:13:56.049Z,54.00
2022-12-25T08:16:23.296Z,62.30
2022-12-25T08:18:50.326Z,56.40
2022-12-25T08:21:17.286Z,45.20
2022-12-25T08:23:46.681Z,55.45
2022-12-25T08:26:17.090Z,56.75
2022-12-25T08:28:43.930Z,63.42
2022-12-25T08:31:17.128Z,47.00
2022-12-25T08:33:44.503Z,54.50
2022-12-25T08:36:12.588Z,47.58
2022-12-25T08:38:40.233Z,47.90
2022-12-25T08:41:07.678Z,42.60
2022-12-25T08:43:34.593Z,54.25
2022-12-25T08:46:01.811Z,55.63
2022-12-25T08:48:29.095Z,49.72
2022-12-25T08:50:56.911Z,42.20
2022-12-25T08:53:24.442Z,38.60
2022-12-25T08:56:01.027Z,38.50
2022-12-25T08:58:28.488Z,29.55
2022-12-25T09:00:56.233Z,45.22
2022-12-25T09:03:23.921Z,44.92
2022-12-25T09:05:51.869Z,35.67
2022-12-25T09:08:19.754Z,46.78
2022-12-25T09:10:46.769Z,34.95
2022-12-25T09:13:14.286Z,44.72
2022-12-25T09:15:41.311Z,39.30
2022-12-25T09:18:08.199Z,28.95
2022-12-25T09:20:35.291Z,25.65
2022-12-25T09:23:02.213Z,44.08
2022-12-25T09:25:29.166Z,26.98
2022-12-25T09:27:57.127Z,30.13
2022-12-25T09:30:24.092Z,28.88
2022-12-25T09:32:51.062Z,31.88
2022-12-25T09:35:19.098Z,34.03
2022-12-25T09:37:46.467Z,33.53
2022-12-25T09:40:21.393Z,31.42
2022-12-25T09:42:49.423Z,26.55
2022-12-25T09:45:25.522Z,21.90
2022-12-25T09:47:56.974Z,27.08
2022-12-25T09:50:45.205Z,28.77
2022-12-25T09:53:23.227Z,26.60
2022-12-25T09:56:09.896Z,23.48
2022-12-25T09:58:36.776Z,23.85
2022-12-25T10:01:08.089Z,27.40
2022-12-25T10:04:13.356Z,24.52
2022-12-25T10:06:49.006Z,27.80
2022-12-25T10:09:19.086Z,20.10
2022-12-25T10:12:10.342Z,31.70
2022-12-25T10:15:01.579Z,21.80
2022-12-25T10:17:44.169Z,23.65
2022-12-25T10:20:19.291Z,21.67
2022-12-25T10:22:51.958Z,23.02
2022-12-25T10:25:24.765Z,23.10
2022-12-25T10:27:58.362Z,24.52
2022-12-25T10:30:27.079Z,18.42
2022-12-25T10:32:57.161Z,20.85
2022-12-25T10:35:26.558Z,18.65
2022-12-25T10:38:10.512Z,17.45
2022-12-25T10:40:44.275Z,21.15
2022-12-25T10:43:32.690Z,15.20
2022-12-25T10:45:59.820Z,20.95
2022-12-25T10:48:29.597Z,14.40
2022-12-25T10:50:57.165Z,21.05
2022-12-25T10:53:29.268Z,17.30
2022-12-25T10:55:57.435Z,19.35
2022-12-25T10:58:24.558Z,17.13
2022-12-25T11:01:02.146Z,30.73
2022-12-25T11:03:35.369Z,14.10
2022-12-25T11:06:02.983Z,21.52
2022-12-25T11:08:33.058Z,11.82
2022-12-25T11:11:06.477Z,15.57
2022-12-25T11:13:42.296Z,20.77
2022-12-25T11:16:15.019Z,22.92
2022-12-25T11:18:48.828Z,16.92
2022-12-25T11:21:26.930Z,18.77
2022-12-25T11:24:02.534Z,13.60
2022-12-25T11:26:35.330Z,14.32
2022-12-25T11:29:03.229Z,15.15
2022-12-25T11:31:40.661Z,19.48
2022-12-25T11:34:26.478Z,12.85
2022-12-25T11:36:54.013Z,13.30
2022-12-25T11:39:36.399Z,10.65
2022-12-25T11:42:11.464Z,13.73
2022-12-25T11:44:50.894Z,12.68
2022-12-25T11:47:42.187Z,11.07
2022-12-25T11:50:39.544Z,8.57
2022-12-25T11:53:16.264Z,14.98
2022-12-25T11:55:56.806Z,14.45
2022-12-25T11:58:26.829Z,13.68
2022-12-25T12:00:57.286Z,19.05
2022-12-25T12:03:38.711Z,16.15
2022-12-25T12:06:17.255Z,14.68
2022-12-25T12:08:47.066Z,14.13
2022-12-25T12:11:22.385Z,19.15
2022-12-25T12:13:53.651Z,19.38
2022-12-25T12:16:20.906Z,15.10
2022-12-25T12:18:50.538Z,11.95
2022-12-25T12:21:17.885Z,14.93
2022-12-25T12:24:06.796Z,17.02
2022-12-25T12:26:38.178Z,15.18
2022-12-25T12:29:08.373Z,12.60
2022-12-25T12:31:41.846Z,19.67
2022-12-25T12:34:25.049Z,14.18
2022-12-25T12:37:00.827Z,19.50
2022-12-25T12:39:36.621Z,10.13
2022-12-25T12:42:14.389Z,15.13
2022-12-25T12:44:42.263Z,17.13
2022-12-25T12:47:47.896Z,15.48
2022-12-25T12:50:34.159Z,10.63
2022-12-25T12:53:21.658Z,10.20
2022-12-25T12:55:49.319Z,9.10
2022-12-25T12:58:34.368Z,14.27
2022-12-25T13:01:33.811Z,9.38
2022-12-25T13:04:19.171Z,8.90
2022-12-25T13:07:23.914Z,15.45
2022-12-25T13:10:23.093Z,15.40
2022-12-25T13:13:06.938Z,12.10
2022-12-25T13:15:35.446Z,19.27
2022-12-25T13:18:06.903Z,11.25
2022-12-25T13:20:56.891Z,13.13
2022-12-25T13:23:35.978Z,13.75
2022-12-25T13:26:05.754Z,11.75
2022-12-25T13:28:35.935Z,11.18
2022-12-25T13:31:15.629Z,13.70
2022-12-25T13:33:47.386Z,23.45
2022-12-25T13:36:14.937Z,15.57
2022-12-25T13:38:51.267Z,12.15
2022-12-25T13:42:04.127Z,10.88
2022-12-25T13:44:36.023Z,15.65
2022-12-25T13:47:32.964Z,10.80
2022-12-25T13:50:20.087Z,14.07
2022-12-25T13:52:47.425Z,12.82
2022-12-25T13:55:23.565Z,17.83
2022-12-25T13:58:03.626Z,14.82
2022-12-25T14:00:49.500Z,19.63
2022-12-25T14:03:39.323Z,17.58
2022-12-25T14:06:24.016Z,17.48
2022-12-25T14:08:52.539Z,24.02
2022-12-25T14:11:22.566Z,15.52
2022-12-25T14:13:54.033Z,18.15
2022-12-25T14:16:21.947Z,22.55
2022-12-25T14:18:59.031Z,18.85
2022-12-25T14:21:30.921Z,24.75
2022-12-25T14:23:58.381Z,22.98
2022-12-25T14:26:33.570Z,23.90
2022-12-25T14:29:16.783Z,32.42
2022-12-25T14:31:46.065Z,36.97
2022-12-25T14:34:20.882Z,26.52
2022-12-25T14:36:48.757Z,45.00
2022-12-25T14:39:31.369Z,29.42
2022-12-25T14:41:58.471Z,32.05
2022-12-25T14:44:30.318Z,28.80
2022-12-25T14:47:23.860Z,27.40
2022-12-25T14:49:52.956Z,34.03
2022-12-25T14:52:28.228Z,33.50
2022-12-25T14:55:01.570Z,35.80
2022-12-25T14:57:38.921Z,40.75
2022-12-25T15:00:22.842Z,35.85
2022-12-25T15:02:51.450Z,28.40
2022-12-25T15:05:29.032Z,39.58
2022-12-25T15:08:13.360Z,32.88
2022-12-25T15:13:28.822Z,32.67
2022-12-25T15:16:15.968Z,29.30
2022-12-25T15:18:45.372Z,32.15
2022-12-25T15:21:34.086Z,27.92
2022-12-25T15:24:01.179Z,30.33
2022-12-25T15:26:29.910Z,33.97
2022-12-25T15:28:56.938Z,27.23
2022-12-25T15:31:27.059Z,30.58
2022-12-25T15:33:56.492Z,26.50
2022-12-25T15:36:24.879Z,29.17
2022-12-25T15:38:52.515Z,27.90
2022-12-25T15:41:42.683Z,37.17
2022-12-25T15:44:11.555Z,36.80
2022-12-25T15:46:38.967Z,32.70
2022-12-25T15:49:06.176Z,32.30
2022-12-25T15:51:33.443Z,29.63
2022-12-25T15:54:00.313Z,32.50
2022-12-25T15:56:28.129Z,42.95
2022-12-25T15:58:55.474Z,32.22
2022-12-25T16:01:22.653Z,30.52
2022-12-25T16:03:49.718Z,30.35
2022-12-25T16:06:18.471Z,26.98
2022-12-25T16:08:46.192Z,36.85
2022-12-25T16:11:13.170Z,29.42
2022-12-25T16:13:40.100Z,29.90
2022-12-25T16:16:07.442Z,27.98
2022-12-25T16:18:34.352Z,37.58
2022-12-25T16:21:01.302Z,33.13
2022-12-25T16:23:28.417Z,34.28
2022-12-25T16:25:55.335Z,28.23
2022-12-25T16:28:22.200Z,34.75
2022-12-25T16:30:49.153Z,32.72
2022-12-25T16:33:16.105Z,35.10
2022-12-25T16:35:44.156Z,31.65
2022-12-25T16:38:11.741Z,27.50
2022-12-25T16:40:38.782Z,29.30
2022-12-25T16:43:05.737Z,26.95
2022-12-25T16:45:40.030Z,34.22
2022-12-25T16:48:08.781Z,34.00
2022-12-25T16:50:39.425Z,31.90
2022-12-25T16:53:07.309Z,42.17
2022-12-25T16:55:34.787Z,31.45
2022-12-25T16:58:01.676Z,32.55
2022-12-25T17:00:28.622Z,40.60
2022-12-25T17:02:56.929Z,37.92
2022-12-25T17:05:24.884Z,33.53
2022-12-25T17:07:51.807Z,33.92
2022-12-25T17:10:19.300Z,28.50
2022-12-25T17:12:46.208Z,36.05
2022-12-25T17:15:13.111Z,31.73
2022-12-25T17:17:40.059Z,41.80
2022-12-25T17:20:07.687Z,36.22
2022-12-25T17:22:34.690Z,40.17
2022-12-25T17:25:01.629Z,39.97
2022-12-25T17:27:28.624Z,41.35
2022-12-25T17:29:56.646Z,38.20
2022-12-25T17:32:23.583Z,41.75
2022-12-25T17:34:50.545Z,37.13
2022-12-25T17:37:17.595Z,51.72
2022-12-25T17:39:44.585Z,58.25
2022-12-25T17:42:11.543Z,47.60
2022-12-25T17:44:38.375Z,47.22
2022-12-25T17:47:05.554Z,45.78
2022-12-25T17:49:32.507Z,41.42
2022-12-25T17:51:59.521Z,46.47
2022-12-25T17:54:26.448Z,48.45
2022-12-25T17:56:53.395Z,42.08
2022-12-25T17:59:23.116Z,47.53
2022-12-25T18:01:50.050Z,48.80
2022-12-25T18:04:17.120Z,46.97
2022-12-25T18:06:44.068Z,39.65
2022-12-25T18:09:11.939Z,43.22
2022-12-25T18:11:41.258Z,37.28
2022-12-25T18:14:11.720Z,41.83
2022-12-25T18:16:40.474Z,50.63
2022-12-25T18:19:08.279Z,40.28
2022-12-25T18:21:35.553Z,42.85
2022-12-25T18:24:04.519Z,47.20
2022-12-25T18:26:31.846Z,51.67
2022-12-25T18:28:58.807Z,48.08
2022-12-25T18:31:27.454Z,61.05
2022-12-25T18:33:54.435Z,44.72
2022-12-25T18:36:23.761Z,49.15
2022-12-25T18:38:52.486Z,40.38
2022-12-25T18:41:20.292Z,53.67
2022-12-25T18:43:53.090Z,42.83
2022-12-25T18:46:24.583Z,45.40
2022-12-25T18:48:52.398Z,47.15
2022-12-25T18:51:19.355Z,46.88
2022-12-25T18:53:46.574Z,58.22
2022-12-25T18:56:17.185Z,51.95
2022-12-25T18:58:44.723Z,45.30
2022-12-25T19:01:16.386Z,46.92
2022-12-25T19:03:44.067Z,46.20
2022-12-25T19:06:18.651Z,47.63
2022-12-25T19:08:45.628Z,50.10
2022-12-25T19:11:12.604Z,49.67
2022-12-25T19:13:39.558Z,51.50
2022-12-25T19:16:06.681Z,68.00
2022-12-25T19:18:33.580Z,45.88
2022-12-25T19:21:05.804Z,54.40
2022-12-25T19:23:33.375Z,44.35
2022-12-25T19:26:00.518Z,47.72
2022-12-25T19:28:27.505Z,40.40
2022-12-25T19:30:54.516Z,41.08
2022-12-25T19:33:22.616Z,40.38
2022-12-25T19:35:49.944Z,43.42
2022-12-25T19:38:16.915Z,44.47
2022-12-25T19:41:00.619Z,55.90
2022-12-25T19:43:33.870Z,57.55
2022-12-25T19:46:01.911Z,60.20
2022-12-25T19:48:30.336Z,60.97
2022-12-25T19:50:57.933Z,48.10
2022-12-25T19:53:25.507Z,54.83
2022-12-25T19:55:53.663Z,50.70
2022-12-25T19:58:21.503Z,71.07
2022-12-25T20:01:07.633Z,71.18
2022-12-25T20:03:40.219Z,78.90
2022-12-25T20:06:19.998Z,60.28
2022-12-25T20:08:47.760Z,60.97
2022-12-25T20:11:15.229Z,65.60
2022-12-25T20:13:42.118Z,56.47
2022-12-25T20:16:10.240Z,54.45
2022-12-25T20:18:41.221Z,69.40
2022-12-25T20:21:12.127Z,80.30
2022-12-25T20:23:39.040Z,67.00
2022-12-25T20:26:06.344Z,70.60
2022-12-25T20:28:35.521Z,62.22
2022-12-25T20:31:16.531Z,70.47
2022-12-25T20:33:44.225Z,64.30
2022-12-25T20:36:12.850Z,65.18
2022-12-25T20:38:40.153Z,129.88
2022-12-25T20:41:27.771Z,112.30
2022-12-25T20:43:55.570Z,148.40
2022-12-25T20:46:22.946Z,197.05
2022-12-25T20:48:50.001Z,212.30
2022-12-25T20:51:20.102Z,275.80
2022-12-25T20:53:47.361Z,145.23
2022-12-25T20:56:16.664Z,239.73
2022-12-25T20:58:43.782Z,187.18
2022-12-25T21:01:17.316Z,112.45
2022-12-25T21:03:44.954Z,154.20
2022-12-25T21:06:12.607Z,188.23
2022-12-25T21:08:40.783Z,256.17
2022-12-25T21:11:08.848Z,169.68
2022-12-25T21:13:38.833Z,110.70
2022-12-25T21:16:07.873Z,176.60
2022-12-25T21:18:35.036Z,196.85
2022-12-25T21:21:05.663Z,202.48
2022-12-25T21:23:34.039Z,301.98
2022-12-25T21:26:12.754Z,205.43
2022-12-25T21:28:39.785Z,130.80
2022-12-25T21:31:09.489Z,129.38
2022-12-25T21:33:51.513Z,124.53
2022-12-25T21:36:33.768Z,160.10
2022-12-25T21:39:02.148Z,140.95
2022-12-25T21:41:30.238Z,163.68
2022-12-25T21:43:57.347Z,192.40
2022-12-25T21:46:25.008Z,178.20
2022-12-25T21:48:52.237Z,144.80
2022-12-25T21:51:41.029Z,291.95
2022-12-25T21:54:08.895Z,161.85
2022-12-25T21:56:44.057Z,330.23
2022-12-25T21:59:17.397Z,317.13
2022-12-25T22:01:45.837Z,160.25
2022-12-25T22:04:14.501Z,148.20
2022-12-25T22:07:00.468Z,164.65
2022-12-25T22:09:27.595Z,159.77
2022-12-25T22:12:13.511Z,150.52
2022-12-25T22:15:02.392Z,183.45
2022-12-25T22:17:50.768Z,162.38
2022-12-25T22:20:42.818Z,159.05
2022-12-25T22:23:09.800Z,147.98
2022-12-25T22:25:36.720Z,264.77
2022-12-25T22:28:03.697Z,161.02
2022-12-25T22:30:30.621Z,165.20
2022-12-25T22:32:58.074Z,161.25
2022-12-25T22:35:25.074Z,185.90
2022-12-25T22:37:53.446Z,175.68
2022-12-25T22:40:20.751Z,143.20
2022-12-25T22:42:48.127Z,188.68
2022-12-25T22:45:15.554Z,182.13
2022-12-25T22:47:42.470Z,119.15
2022-12-25T22:50:10.789Z,125.28
2022-12-25T22:52:38.363Z,167.38
2022-12-25T22:55:07.669Z,116.25
2022-12-25T22:57:35.046Z,134.10
2022-12-25T23:00:02.255Z,86.63
2022-12-25T23:02:29.374Z,83.90
2022-12-25T23:04:56.431Z,65.75
2022-12-25T23:07:23.377Z,110.78
2022-12-25T23:09:50.301Z,82.47
2022-12-25T23:12:35.701Z,92.13
2022-12-25T23:15:02.657Z,74.93
2022-12-25T23:17:48.123Z,85.45
2022-12-25T23:20:34.121Z,77.93
2022-12-25T23:23:20.622Z,77.68
2022-12-25T23:26:07.333Z,65.68
2022-12-25T23:28:53.652Z,74.40
2022-12-25T23:31:25.174Z,91.53
2022-12-25T23:33:53.287Z,111.25
2022-12-25T23:36:20.207Z,70.75
2022-12-25T23:38:47.037Z,81.32
2022-12-25T23:41:13.995Z,95.00
2022-12-25T23:43:40.884Z,69.80
2022-12-25T23:46:08.009Z,65.18
2022-12-25T23:48:35.019Z,80.43
2022-12-25T23:51:06.375Z,72.47
2022-12-25T23:53:34.082Z,71.13
2022-12-25T23:56:01.737Z,72.07
2022-12-25T23:58:29.687Z,83.15
